createdAt,value
2017-12-05T00:00:49.697Z,25.67
2017-12-05T00:03:19.018Z,25.87
2017-12-05T00:05:45.316Z,26.00
2017-12-05T00:08:12.033Z,26.03
2017-12-05T00:10:41.231Z,26.70
2017-12-05T00:13:08.342Z,23.13
2017-12-05T00:15:34.734Z,24.00
2017-12-05T00:18:02.354Z,23.03
2017-12-05T00:20:29.503Z,26.37
2017-12-05T00:22:57.597Z,28.83
2017-12-05T00:25:23.933Z,21.87
2017-12-05T00:27:51.212Z,24.13
2017-12-05T00:30:17.493Z,24.30
2017-12-05T00:32:43.950Z,21.20
2017-12-05T00:35:10.997Z,20.03
2017-12-05T00:37:38.176Z,32.90
2017-12-05T00:40:08.983Z,19.67
2017-12-05T00:42:35.425Z,26.80
2017-12-05T00:45:02.347Z,19.80
2017-12-05T00:47:28.993Z,22.83
2017-12-05T00:49:55.432Z,26.33
2017-12-05T00:52:21.796Z,24.60
2017-12-05T00:54:48.425Z,22.97
2017-12-05T00:57:14.963Z,27.00
2017-12-05T00:59:43.473Z,25.00
2017-12-05T01:02:10.616Z,29.17
2017-12-05T01:04:38.794Z,25.70
2017-12-05T01:07:05.122Z,27.63
2017-12-05T01:09:32.352Z,24.17
2017-12-05T01:11:59.951Z,25.37
2017-12-05T01:14:27.098Z,29.03
2017-12-05T01:16:53.742Z,24.83
2017-12-05T01:19:20.383Z,24.80
2017-12-05T01:21:46.858Z,25.67
2017-12-05T01:24:14.086Z,23.70
2017-12-05T01:26:40.713Z,24.93
2017-12-05T01:29:07.036Z,20.20
2017-12-05T01:31:33.373Z,28.10
2017-12-05T01:33:59.892Z,30.80
2017-12-05T01:36:26.364Z,24.10
2017-12-05T01:38:52.660Z,27.97
2017-12-05T01:41:19.017Z,24.43
2017-12-05T01:43:45.627Z,23.77
2017-12-05T01:46:12.363Z,22.40
2017-12-05T01:48:38.786Z,19.63
2017-12-05T01:51:06.787Z,24.87
2017-12-05T01:53:33.110Z,24.23
2017-12-05T01:56:00.363Z,23.77
2017-12-05T01:58:26.783Z,24.17
2017-12-05T02:00:53.075Z,24.03
2017-12-05T02:03:23.744Z,23.00
2017-12-05T02:05:50.044Z,24.87
2017-12-05T02:08:16.533Z,20.23
2017-12-05T02:10:44.430Z,23.07
2017-12-05T02:13:11.454Z,25.30
2017-12-05T02:15:37.885Z,22.47
2017-12-05T02:18:04.198Z,26.13
2017-12-05T02:20:30.468Z,25.63
2017-12-05T02:22:58.339Z,25.83
2017-12-05T02:25:24.583Z,23.70
2017-12-05T02:27:50.868Z,23.80
2017-12-05T02:30:17.124Z,24.10
2017-12-05T02:32:47.141Z,27.20
2017-12-05T02:35:14.326Z,26.87
2017-12-05T02:37:41.587Z,26.07
2017-12-05T02:40:08.006Z,28.67
2017-12-05T02:42:34.613Z,25.73
2017-12-05T02:45:00.889Z,27.30
2017-12-05T02:47:27.317Z,26.70
2017-12-05T02:49:53.648Z,28.33
2017-12-05T02:52:20.076Z,24.87
2017-12-05T02:54:47.007Z,25.60
2017-12-05T02:57:14.104Z,25.23
2017-12-05T02:59:41.118Z,25.57
2017-12-05T03:02:07.750Z,26.43
2017-12-05T03:04:34.264Z,25.93
2017-12-05T03:07:00.608Z,29.37
2017-12-05T03:09:27.274Z,26.13
2017-12-05T03:11:55.557Z,29.10
2017-12-05T03:14:22.755Z,27.23
2017-12-05T03:16:49.145Z,22.77
2017-12-05T03:21:48.815Z,24.00
2017-12-05T03:24:15.119Z,24.20
2017-12-05T03:26:41.580Z,29.40
2017-12-05T03:29:08.136Z,26.27
2017-12-05T03:31:34.614Z,26.00
2017-12-05T03:34:02.470Z,24.60
2017-12-05T03:36:29.899Z,28.03
2017-12-05T03:38:57.481Z,24.03
2017-12-05T03:41:24.467Z,27.57
2017-12-05T03:43:51.024Z,29.67
2017-12-05T03:46:17.564Z,37.03
2017-12-05T03:48:47.252Z,26.67
2017-12-05T03:51:13.755Z,25.67
2017-12-05T03:53:41.194Z,25.50
2017-12-05T03:56:08.547Z,24.93
2017-12-05T03:58:35.794Z,29.63
2017-12-05T04:01:02.845Z,28.27
2017-12-05T04:03:30.005Z,28.80
2017-12-05T04:05:57.094Z,27.13
2017-12-05T04:08:23.480Z,27.37
2017-12-05T04:10:49.755Z,27.20
2017-12-05T04:13:18.833Z,31.40
2017-12-05T04:15:45.689Z,27.37
2017-12-05T04:18:12.398Z,28.77
2017-12-05T04:20:38.836Z,27.30
2017-12-05T04:23:05.457Z,29.63
2017-12-05T04:25:32.374Z,24.90
2017-12-05T04:27:59.117Z,26.43
2017-12-05T04:30:26.318Z,28.43
2017-12-05T04:32:54.219Z,31.97
2017-12-05T04:35:20.859Z,29.97
2017-12-05T04:37:47.538Z,27.00
2017-12-05T04:40:14.035Z,23.53
2017-12-05T04:42:41.135Z,27.80
2017-12-05T04:45:08.367Z,24.97
2017-12-05T04:47:36.675Z,23.93
2017-12-05T04:50:05.340Z,27.20
2017-12-05T04:52:31.967Z,25.93
2017-12-05T04:54:58.373Z,27.40
2017-12-05T04:57:24.851Z,28.20
2017-12-05T04:59:51.895Z,22.17
2017-12-05T05:02:18.517Z,23.83
2017-12-05T05:04:45.559Z,26.30
2017-12-05T05:07:13.297Z,26.90
2017-12-05T05:09:41.485Z,27.37
2017-12-05T05:12:08.204Z,23.97
2017-12-05T05:14:35.367Z,24.57
2017-12-05T05:17:02.996Z,25.57
2017-12-05T05:19:29.270Z,25.50
2017-12-05T05:21:55.763Z,31.43
2017-12-05T05:24:22.190Z,22.23
2017-12-05T05:26:49.811Z,30.93
2017-12-05T05:29:16.743Z,23.30
2017-12-05T05:31:43.213Z,27.40
2017-12-05T05:34:09.662Z,25.73
2017-12-05T05:36:36.351Z,23.80
2017-12-05T05:39:03.041Z,27.60
2017-12-05T05:41:30.409Z,27.03
2017-12-05T05:43:58.522Z,34.53
2017-12-05T05:46:26.041Z,23.27
2017-12-05T05:48:53.501Z,25.07
2017-12-05T05:51:20.220Z,25.30
2017-12-05T05:53:49.291Z,23.97
2017-12-05T05:56:17.091Z,28.50
2017-12-05T05:58:44.580Z,29.57
2017-12-05T06:01:11.401Z,23.67
2017-12-05T06:03:38.020Z,28.20
2017-12-05T06:06:05.180Z,22.53
2017-12-05T06:08:31.660Z,25.20
2017-12-05T06:10:58.756Z,28.93
2017-12-05T06:13:26.232Z,29.57
2017-12-05T06:15:52.831Z,27.73
2017-12-05T06:18:22.450Z,23.23
2017-12-05T06:20:51.840Z,30.87
2017-12-05T06:23:19.150Z,35.07
2017-12-05T06:25:45.701Z,28.33
2017-12-05T06:28:14.450Z,30.40
2017-12-05T06:30:41.040Z,32.93
2017-12-05T06:33:07.570Z,30.80
2017-12-05T06:35:35.600Z,24.50
2017-12-05T06:38:03.181Z,25.87
2017-12-05T06:40:31.111Z,31.23
2017-12-05T06:42:57.601Z,23.80
2017-12-05T06:45:24.100Z,27.03
2017-12-05T06:47:50.932Z,22.30
2017-12-05T06:50:18.700Z,27.63
2017-12-05T06:52:46.620Z,21.77
2017-12-05T06:55:13.780Z,20.57
2017-12-05T06:57:40.450Z,24.57
2017-12-05T07:00:07.622Z,18.33
2017-12-05T07:02:34.950Z,24.70
2017-12-05T07:05:01.592Z,19.50
2017-12-05T07:07:28.266Z,24.53
2017-12-05T07:09:55.070Z,20.63
2017-12-05T07:12:21.621Z,21.27
2017-12-05T07:14:49.680Z,24.40
2017-12-05T07:17:16.260Z,19.70
2017-12-05T07:19:43.530Z,21.20
2017-12-05T07:22:10.410Z,20.43
2017-12-05T07:24:37.150Z,19.70
2017-12-05T07:27:03.730Z,18.53
2017-12-05T07:29:32.050Z,19.60
2017-12-05T07:31:58.791Z,20.37
2017-12-05T07:34:25.580Z,19.13
2017-12-05T07:36:53.010Z,20.10
2017-12-05T07:39:19.620Z,18.63
2017-12-05T07:41:46.160Z,20.70
2017-12-05T07:44:12.900Z,21.40
2017-12-05T07:46:39.470Z,20.83
2017-12-05T07:49:06.220Z,20.87
2017-12-05T07:51:34.520Z,17.93
2017-12-05T07:54:01.360Z,19.90
2017-12-05T07:56:28.031Z,18.83
2017-12-05T07:58:55.770Z,14.50
2017-12-05T08:01:22.350Z,18.03
2017-12-05T08:03:49.042Z,15.83
2017-12-05T08:06:17.350Z,19.03
2017-12-05T08:08:45.000Z,18.03
2017-12-05T08:11:11.510Z,20.20
2017-12-05T08:13:38.040Z,18.73
2017-12-05T08:16:05.520Z,19.10
2017-12-05T08:18:32.260Z,19.37
2017-12-05T08:20:59.870Z,14.97
2017-12-05T08:23:28.030Z,19.00
2017-12-05T08:25:54.710Z,15.00
2017-12-05T08:28:21.393Z,17.73
2017-12-05T08:30:49.284Z,12.17
2017-12-05T08:33:16.640Z,16.13
2017-12-05T08:35:44.211Z,14.57
2017-12-05T08:38:10.840Z,11.83
2017-12-05T08:40:38.540Z,16.20
2017-12-05T08:43:05.630Z,13.63
2017-12-05T08:45:33.001Z,16.13
2017-12-05T08:48:00.650Z,13.90
2017-12-05T08:50:28.080Z,14.63
2017-12-05T08:52:54.541Z,15.93
2017-12-05T08:55:24.250Z,12.23
2017-12-05T08:57:51.671Z,16.30
2017-12-05T09:00:18.550Z,13.50
2017-12-05T09:02:46.470Z,13.07
2017-12-05T09:05:14.230Z,13.47
2017-12-05T09:07:42.000Z,14.27
2017-12-05T09:10:09.562Z,13.63
2017-12-05T09:12:37.090Z,14.50
2017-12-05T09:15:03.730Z,10.97
2017-12-05T09:17:30.940Z,15.47
2017-12-05T09:19:57.940Z,19.17
2017-12-05T09:22:26.320Z,12.70
2017-12-05T09:24:54.280Z,13.80
2017-12-05T09:27:20.920Z,10.00
2017-12-05T09:29:47.820Z,12.10
2017-12-05T09:32:16.351Z,11.33
2017-12-05T09:34:43.040Z,17.47
2017-12-05T09:37:10.290Z,10.87
2017-12-05T09:39:37.640Z,10.57
2017-12-05T09:42:05.050Z,11.80
2017-12-05T09:44:31.740Z,10.33
2017-12-05T09:46:59.289Z,19.83
2017-12-05T09:49:26.941Z,12.50
2017-12-05T09:51:53.506Z,12.77
2017-12-05T09:54:20.170Z,21.23
2017-12-05T09:56:46.750Z,13.93
2017-12-05T09:59:13.380Z,13.30
2017-12-05T10:01:40.251Z,15.33
2017-12-05T10:04:07.660Z,15.50
2017-12-05T10:06:34.430Z,12.83
2017-12-05T10:09:02.270Z,19.17
2017-12-05T10:11:29.130Z,15.10
2017-12-05T10:13:56.200Z,14.30
2017-12-05T10:16:23.790Z,11.47
2017-12-05T10:18:50.281Z,9.83
2017-12-05T10:21:17.484Z,8.20
2017-12-05T10:23:44.030Z,14.03
2017-12-05T10:26:10.800Z,14.70
2017-12-05T10:28:38.270Z,12.80
2017-12-05T10:31:05.690Z,14.10
2017-12-05T10:33:32.560Z,11.67
2017-12-05T10:35:59.800Z,10.90
2017-12-05T10:38:26.560Z,10.60
2017-12-05T10:40:54.580Z,14.07
2017-12-05T10:43:21.240Z,12.60
2017-12-05T10:45:47.860Z,17.07
2017-12-05T10:48:15.580Z,15.40
2017-12-05T10:50:43.360Z,12.27
2017-12-05T10:53:13.650Z,16.43
2017-12-05T10:55:43.229Z,14.90
2017-12-05T10:58:10.090Z,12.90
2017-12-05T11:00:37.581Z,14.17
2017-12-05T11:03:04.280Z,10.83
2017-12-05T11:05:31.650Z,14.90
2017-12-05T11:07:58.491Z,16.20
2017-12-05T11:10:24.777Z,16.77
2017-12-05T11:12:51.265Z,16.10
2017-12-05T11:15:18.433Z,15.33
2017-12-05T11:17:44.834Z,13.63
2017-12-05T11:20:11.152Z,14.80
2017-12-05T11:22:38.223Z,15.50
2017-12-05T11:25:04.733Z,24.60
2017-12-05T11:27:31.409Z,13.93
2017-12-05T11:29:58.429Z,13.83
2017-12-05T11:32:24.943Z,18.23
2017-12-05T11:34:52.043Z,13.50
2017-12-05T11:37:18.357Z,14.47
2017-12-05T11:39:44.673Z,15.67
2017-12-05T11:42:11.031Z,14.80
2017-12-05T11:44:37.779Z,14.70
2017-12-05T11:47:04.173Z,19.37
2017-12-05T11:49:31.433Z,15.10
2017-12-05T11:51:57.934Z,16.70
2017-12-05T11:54:25.193Z,10.90
2017-12-05T11:56:52.671Z,13.40
2017-12-05T11:59:22.835Z,13.37
2017-12-05T12:01:49.440Z,12.13
2017-12-05T12:04:15.954Z,12.40
2017-12-05T12:06:42.667Z,11.90
2017-12-05T12:09:10.125Z,14.40
2017-12-05T12:11:37.317Z,18.53
2017-12-05T12:14:03.857Z,13.97
2017-12-05T12:16:31.563Z,16.43
2017-12-05T12:18:57.900Z,13.23
2017-12-05T12:21:25.292Z,17.67
2017-12-05T12:23:51.793Z,14.10
2017-12-05T12:26:18.910Z,11.70
2017-12-05T12:28:45.355Z,11.90
2017-12-05T12:31:11.917Z,14.33
2017-12-05T12:33:39.039Z,12.00
2017-12-05T12:36:05.404Z,17.73
2017-12-05T12:38:33.283Z,13.67
2017-12-05T12:41:02.330Z,14.30
2017-12-05T12:43:28.744Z,13.27
2017-12-05T12:48:34.729Z,11.63
2017-12-05T12:51:01.043Z,12.13
2017-12-05T12:53:27.474Z,13.87
2017-12-05T12:55:53.883Z,12.77
2017-12-05T12:58:21.104Z,13.90
2017-12-05T13:00:48.006Z,13.17
2017-12-05T13:03:15.598Z,23.13
2017-12-05T13:05:42.349Z,14.37
2017-12-05T13:08:08.854Z,16.43
2017-12-05T13:10:39.241Z,12.20
2017-12-05T13:13:05.568Z,12.87
2017-12-05T13:15:31.992Z,15.80
2017-12-05T13:17:59.046Z,11.40
2017-12-05T13:20:25.334Z,14.93
2017-12-05T13:22:52.388Z,13.73
2017-12-05T13:25:19.516Z,12.83
2017-12-05T13:27:46.642Z,16.53
2017-12-05T13:30:13.126Z,14.27
2017-12-05T13:32:43.508Z,12.90
2017-12-05T13:35:09.912Z,11.80
2017-12-05T13:37:36.364Z,10.70
2017-12-05T13:40:02.973Z,12.97
2017-12-05T13:42:29.604Z,12.67
2017-12-05T13:44:56.261Z,15.00
2017-12-05T13:47:22.584Z,11.53
2017-12-05T13:49:49.932Z,16.67
2017-12-05T13:52:16.308Z,18.17
2017-12-05T13:54:42.808Z,19.20
2017-12-05T13:57:10.100Z,14.40
2017-12-05T13:59:37.134Z,12.50
2017-12-05T14:02:04.963Z,17.10
2017-12-05T14:04:31.282Z,12.50
2017-12-05T14:06:57.570Z,17.17
2017-12-05T14:09:24.635Z,17.57
2017-12-05T14:11:51.128Z,13.50
2017-12-05T14:14:18.632Z,16.03
2017-12-05T14:16:45.231Z,15.10
2017-12-05T14:19:12.287Z,15.03
2017-12-05T14:21:39.331Z,12.63
2017-12-05T14:24:06.641Z,14.37
2017-12-05T14:26:32.989Z,16.67
2017-12-05T14:28:59.394Z,17.10
2017-12-05T14:31:25.710Z,12.40
2017-12-05T14:33:52.035Z,17.67
2017-12-05T14:36:18.545Z,15.20
2017-12-05T14:38:45.834Z,19.83
2017-12-05T14:41:12.174Z,12.10
2017-12-05T14:43:38.610Z,13.73
2017-12-05T14:46:05.002Z,12.90
2017-12-05T14:48:31.464Z,12.10
2017-12-05T14:50:58.095Z,13.00
2017-12-05T14:53:24.671Z,13.57
2017-12-05T14:55:51.083Z,14.63
2017-12-05T14:58:17.593Z,15.03
2017-12-05T15:00:44.018Z,12.93
2017-12-05T15:03:10.355Z,14.33
2017-12-05T15:05:36.993Z,17.20
2017-12-05T15:08:03.384Z,14.10
2017-12-05T15:10:31.187Z,17.47
2017-12-05T15:12:58.545Z,16.77
2017-12-05T15:15:25.796Z,31.13
2017-12-05T15:17:52.286Z,14.43
2017-12-05T15:20:20.431Z,15.40
2017-12-05T15:22:47.427Z,14.40
2017-12-05T15:25:14.655Z,14.60
2017-12-05T15:27:41.264Z,13.60
2017-12-05T15:30:08.325Z,13.57
2017-12-05T15:32:35.103Z,22.20
2017-12-05T15:35:01.622Z,22.97
2017-12-05T15:37:28.397Z,16.67
2017-12-05T15:39:54.740Z,15.73
2017-12-05T15:42:21.404Z,13.00
2017-12-05T15:44:47.736Z,15.60
2017-12-05T15:47:14.937Z,15.97
2017-12-05T15:49:41.305Z,14.63
2017-12-05T15:52:07.663Z,16.00
2017-12-05T15:54:34.042Z,17.03
2017-12-05T15:57:00.527Z,14.77
2017-12-05T15:59:26.873Z,23.13
2017-12-05T16:01:53.703Z,15.77
2017-12-05T16:04:21.484Z,16.30
2017-12-05T16:06:47.923Z,17.77
2017-12-05T16:09:14.404Z,15.87
2017-12-05T16:11:40.955Z,18.53
2017-12-05T16:14:08.857Z,22.30
2017-12-05T16:16:35.387Z,19.10
2017-12-05T16:19:01.754Z,17.60
2017-12-05T16:21:28.255Z,25.30
2017-12-05T16:23:56.774Z,17.73
2017-12-05T16:26:24.675Z,18.50
2017-12-05T16:28:51.278Z,23.07
2017-12-05T16:31:17.743Z,19.20
2017-12-05T16:33:44.172Z,20.57
2017-12-05T16:36:11.237Z,21.00
2017-12-05T16:38:37.589Z,16.47
2017-12-05T16:41:06.107Z,21.77
2017-12-05T16:43:32.624Z,21.77
2017-12-05T16:45:59.049Z,18.50
2017-12-05T16:48:25.560Z,19.33
2017-12-05T16:50:51.909Z,21.30
2017-12-05T16:53:18.320Z,18.40
2017-12-05T16:55:44.640Z,22.00
2017-12-05T16:58:10.974Z,18.33
2017-12-05T17:00:40.486Z,19.70
2017-12-05T17:03:07.636Z,18.03
2017-12-05T17:05:34.385Z,24.30
2017-12-05T17:08:00.833Z,18.40
2017-12-05T17:10:28.104Z,20.00
2017-12-05T17:12:54.585Z,22.77
2017-12-05T17:15:20.940Z,19.90
2017-12-05T17:17:50.139Z,18.43
2017-12-05T17:20:16.488Z,18.87
2017-12-05T17:22:42.860Z,16.03
2017-12-05T17:25:09.435Z,19.63
2017-12-05T17:27:35.795Z,24.93
2017-12-05T17:30:05.153Z,18.70
2017-12-05T17:32:32.673Z,19.00
2017-12-05T17:34:59.171Z,17.70
2017-12-05T17:37:26.353Z,20.27
2017-12-05T17:39:52.927Z,17.20
2017-12-05T17:42:20.360Z,18.40
2017-12-05T17:44:46.724Z,20.87
2017-12-05T17:47:13.124Z,19.60
2017-12-05T17:49:39.473Z,22.40
2017-12-05T17:52:06.198Z,20.67
2017-12-05T17:54:32.529Z,22.10
2017-12-05T17:56:58.964Z,15.93
2017-12-05T17:59:25.270Z,23.50
2017-12-05T18:01:52.234Z,22.00
2017-12-05T18:04:19.358Z,20.43
2017-12-05T18:06:45.983Z,22.37
2017-12-05T18:09:13.038Z,20.77
2017-12-05T18:11:40.915Z,17.33
2017-12-05T18:14:07.584Z,17.60
2017-12-05T18:16:34.127Z,16.93
2017-12-05T18:19:00.610Z,20.47
2017-12-05T18:21:27.963Z,17.23
2017-12-05T18:23:55.320Z,18.23
2017-12-05T18:26:21.803Z,21.87
2017-12-05T18:28:48.423Z,22.87
2017-12-05T18:31:15.053Z,22.83
2017-12-05T18:33:41.613Z,22.83
2017-12-05T18:36:07.954Z,18.10
2017-12-05T18:38:34.448Z,18.60
2017-12-05T18:41:00.879Z,21.43
2017-12-05T18:43:27.351Z,23.50
2017-12-05T18:45:55.471Z,21.53
2017-12-05T18:48:21.941Z,16.53
2017-12-05T18:50:48.424Z,18.13
2017-12-05T18:53:14.993Z,19.30
2017-12-05T18:55:41.443Z,18.77
2017-12-05T18:58:07.774Z,22.40
2017-12-05T19:00:34.202Z,18.80
2017-12-05T19:03:00.564Z,20.17
2017-12-05T19:05:27.623Z,19.33
2017-12-05T19:07:56.123Z,16.57
2017-12-05T19:10:22.469Z,21.80
2017-12-05T19:12:49.831Z,19.20
2017-12-05T19:15:16.322Z,22.77
2017-12-05T19:17:42.833Z,17.83
2017-12-05T19:20:10.460Z,18.03
2017-12-05T19:22:37.328Z,18.90
2017-12-05T19:25:04.013Z,23.23
2017-12-05T19:27:30.633Z,26.53
2017-12-05T19:29:57.251Z,22.87
2017-12-05T19:32:24.739Z,22.70
2017-12-05T19:34:51.252Z,18.17
2017-12-05T19:37:17.692Z,19.80
2017-12-05T19:39:44.339Z,20.33
2017-12-05T19:42:10.875Z,18.60
2017-12-05T19:44:39.546Z,20.00
2017-12-05T19:47:06.789Z,20.80
2017-12-05T19:49:34.027Z,18.20
2017-12-05T19:52:00.628Z,23.40
2017-12-05T19:54:27.279Z,19.03
2017-12-05T19:56:53.921Z,20.00
2017-12-05T19:59:21.341Z,22.47
2017-12-05T20:01:47.687Z,17.57
2017-12-05T20:04:14.411Z,18.03
2017-12-05T20:06:42.700Z,19.33
2017-12-05T20:09:09.169Z,21.97
2017-12-05T20:11:35.454Z,19.37
2017-12-05T20:14:03.286Z,18.00
2017-12-05T20:16:30.384Z,16.30
2017-12-05T20:18:57.922Z,21.07
2017-12-05T20:21:25.252Z,20.57
2017-12-05T20:24:01.195Z,20.33
2017-12-05T20:26:27.793Z,21.83
2017-12-05T20:28:54.510Z,18.93
2017-12-05T20:31:21.487Z,19.03
2017-12-05T20:33:48.437Z,21.77
2017-12-05T20:36:15.173Z,20.93
2017-12-05T20:38:42.027Z,22.17
2017-12-05T20:41:09.379Z,20.80
2017-12-05T20:43:36.362Z,18.90
2017-12-05T20:46:03.034Z,19.20
2017-12-05T20:48:30.717Z,23.10
2017-12-05T20:50:57.943Z,19.73
2017-12-05T20:53:24.415Z,20.00
2017-12-05T20:55:51.529Z,23.13
2017-12-05T20:58:18.178Z,22.97
2017-12-05T21:00:44.609Z,20.77
2017-12-05T21:03:11.171Z,20.73
2017-12-05T21:05:38.152Z,20.80
2017-12-05T21:08:05.239Z,19.23
2017-12-05T21:10:31.793Z,19.10
2017-12-05T21:12:58.088Z,22.90
2017-12-05T21:15:24.403Z,21.97
2017-12-05T21:17:50.877Z,22.60
2017-12-05T21:20:18.235Z,20.57
2017-12-05T21:22:45.540Z,22.13
2017-12-05T21:25:12.214Z,18.53
2017-12-05T21:27:39.338Z,26.67
2017-12-05T21:30:06.387Z,20.60
2017-12-05T21:32:32.835Z,18.67
2017-12-05T21:34:59.209Z,22.20
2017-12-05T21:37:25.753Z,22.90
2017-12-05T21:39:52.202Z,25.83
2017-12-05T21:42:18.724Z,22.23
2017-12-05T21:44:45.037Z,20.80
2017-12-05T21:47:13.050Z,22.43
2017-12-05T21:49:44.063Z,18.23
2017-12-05T21:52:11.838Z,20.20
2017-12-05T21:54:41.292Z,22.80
2017-12-05T21:57:08.546Z,20.97
2017-12-05T21:59:36.581Z,18.23
2017-12-05T22:02:03.715Z,19.50
2017-12-05T22:04:30.121Z,20.33
2017-12-05T22:06:57.679Z,20.13
2017-12-05T22:09:25.179Z,23.53
2017-12-05T22:11:51.861Z,23.57
2017-12-05T22:14:18.315Z,20.17
2017-12-05T22:16:44.861Z,21.37
2017-12-05T22:19:14.661Z,23.77
2017-12-05T22:21:42.013Z,25.90
2017-12-05T22:24:08.981Z,21.43
2017-12-05T22:26:35.769Z,22.17
2017-12-05T22:29:02.351Z,21.47
2017-12-05T22:31:30.308Z,24.73
2017-12-05T22:33:56.971Z,21.60
2017-12-05T22:36:25.040Z,21.83
2017-12-05T22:38:51.402Z,26.70
2017-12-05T22:41:17.941Z,26.07
2017-12-05T22:43:44.464Z,28.23
2017-12-05T22:46:11.142Z,21.57
2017-12-05T22:48:37.561Z,22.20
2017-12-05T22:51:05.302Z,26.10
2017-12-05T22:53:32.578Z,23.27
2017-12-05T22:55:59.042Z,21.60
2017-12-05T22:58:26.951Z,21.73
2017-12-05T23:00:54.358Z,25.93
2017-12-05T23:03:20.874Z,24.03
2017-12-05T23:05:47.182Z,19.90
2017-12-05T23:08:14.663Z,22.93
2017-12-05T23:10:42.321Z,23.73
2017-12-05T23:13:08.879Z,18.37
2017-12-05T23:15:35.596Z,23.53
2017-12-05T23:18:03.060Z,22.80
2017-12-05T23:20:29.550Z,20.43
2017-12-05T23:22:56.937Z,21.90
2017-12-05T23:25:24.586Z,18.27
2017-12-05T23:27:51.439Z,26.20
2017-12-05T23:30:18.068Z,19.43
2017-12-05T23:32:44.572Z,19.13
2017-12-05T23:35:11.760Z,20.90
2017-12-05T23:37:39.036Z,23.23
2017-12-05T23:40:05.430Z,24.10
2017-12-05T23:42:31.777Z,20.60
2017-12-05T23:45:00.178Z,23.77
2017-12-05T23:47:28.281Z,18.53
2017-12-05T23:49:57.299Z,23.87
2017-12-05T23:52:23.659Z,22.13
2017-12-05T23:54:50.060Z,21.33
2017-12-05T23:57:16.542Z,24.30
2017-12-05T23:59:43.114Z,23.50
